Time;durP1;ratioP1;P1;durP2;ratioP2;P2;SDS_P1;SDS_P2;PMS_P1;PMS_P2;Temp;Humidity;BMP_temperature;BMP_pressure;BME280_temperature;BME280_humidity;BME280_pressure;Samples;Min_cycle;Max_cycle;Signal;HPM_P1;HPM_P2
2022/02/12 00:01:04;;;;;;;6.33;3.90;;;2.90;99.90;;;;;;5060354;28;20227;-69
2022/02/12 00:03:31;;;;;;;5.90;4.23;;;2.90;99.90;;;;;;5073504;28;20216;-68
2022/02/12 00:06:00;;;;;;;9.07;4.30;;;2.80;99.90;;;;;;5072412;28;20294;-68
2022/02/12 00:08:26;;;;;;;4.97;3.37;;;2.80;99.90;;;;;;5063094;28;20204;-67
2022/02/12 00:10:53;;;;;;;5.73;3.93;;;2.80;99.90;;;;;;5073040;28;20752;-68
2022/02/12 00:13:20;;;;;;;6.93;3.83;;;2.70;99.90;;;;;;5073615;28;20259;-67
2022/02/12 00:15:47;;;;;;;4.23;3.57;;;2.80;99.90;;;;;;5071697;28;20320;-70
2022/02/12 00:18:15;;;;;;;4.63;3.27;;;2.70;99.90;;;;;;5061703;28;20646;-67
2022/02/12 00:20:42;;;;;;;5.37;3.83;;;2.70;99.90;;;;;;5067457;28;20248;-67
2022/02/12 00:23:10;;;;;;;5.47;3.60;;;2.70;99.90;;;;;;5069114;28;20212;-68
2022/02/12 00:25:37;;;;;;;4.37;3.20;;;2.70;99.90;;;;;;5063902;28;20689;-68
2022/02/12 00:28:04;;;;;;;5.60;3.83;;;2.70;99.90;;;;;;5072427;28;20269;-68
2022/02/12 00:30:31;;;;;;;4.17;3.10;;;2.70;99.90;;;;;;5081489;28;20235;-68
2022/02/12 00:32:58;;;;;;;3.90;2.87;;;2.70;99.90;;;;;;5053549;28;20209;-67
2022/02/12 00:35:25;;;;;;;5.23;2.67;;;2.70;99.90;;;;;;5066498;28;20271;-67
2022/02/12 00:37:52;;;;;;;4.47;2.57;;;2.70;99.90;;;;;;5067703;28;20241;-67
2022/02/12 00:40:22;;;;;;;3.57;2.30;;;2.70;99.90;;;;;;5068613;28;20709;-68
2022/02/12 00:42:50;;;;;;;4.73;2.17;;;2.70;99.90;;;;;;5072505;28;20204;-67
2022/02/12 00:45:17;;;;;;;3.63;1.73;;;2.60;99.90;;;;;;5068391;28;20660;-67
2022/02/12 00:47:43;;;;;;;3.40;2.00;;;2.60;99.90;;;;;;5066134;28;20286;-67
2022/02/12 00:50:11;;;;;;;2.40;1.83;;;2.60;99.90;;;;;;5054112;28;20222;-68
2022/02/12 00:52:38;;;;;;;2.83;2.00;;;2.50;99.90;;;;;;5066048;28;20641;-68
2022/02/12 00:55:06;;;;;;;3.07;1.80;;;2.50;99.90;;;;;;5072010;28;20289;-67
2022/02/12 00:57:34;;;;;;;1.70;1.40;;;2.40;99.90;;;;;;5064482;28;20197;-67
2022/02/12 01:00:01;;;;;;;2.67;1.73;;;2.40;99.90;;;;;;5068105;28;20205;-67
2022/02/12 01:02:28;;;;;;;3.60;1.70;;;2.40;99.90;;;;;;5057524;28;20296;-68
2022/02/12 01:04:55;;;;;;;1.97;1.70;;;2.40;99.90;;;;;;5063284;28;20213;-69
2022/02/12 01:07:22;;;;;;;4.17;1.70;;;2.40;99.90;;;;;;5072804;28;20233;-68
2022/02/12 01:09:49;;;;;;;3.60;1.73;;;2.40;99.90;;;;;;5075191;28;20304;-67
2022/02/12 01:12:16;;;;;;;3.53;2.00;;;2.40;99.90;;;;;;5072360;28;20281;-67
2022/02/12 01:14:44;;;;;;;2.23;1.30;;;2.40;99.90;;;;;;5068612;28;20580;-68
2022/02/12 01:17:11;;;;;;;2.57;1.70;;;2.40;99.90;;;;;;5066545;28;20237;-67
2022/02/12 01:19:38;;;;;;;3.67;1.73;;;2.40;99.90;;;;;;5066115;28;20296;-67
2022/02/12 01:22:05;;;;;;;2.63;1.63;;;2.40;99.90;;;;;;5082833;28;20264;-68
2022/02/12 01:24:32;;;;;;;1.50;1.40;;;2.40;99.90;;;;;;5069007;28;20240;-67
2022/02/12 01:26:59;;;;;;;2.33;1.73;;;2.40;99.90;;;;;;5072085;28;20287;-68
2022/02/12 01:29:25;;;;;;;3.93;1.73;;;2.40;99.90;;;;;;5079533;28;20678;-68
2022/02/12 01:31:55;;;;;;;2.93;2.00;;;2.40;99.90;;;;;;5059531;28;20723;-67
2022/02/12 01:34:23;;;;;;;3.77;1.90;;;2.50;99.90;;;;;;5071790;28;20280;-67
2022/02/12 01:36:50;;;;;;;2.00;1.43;;;2.40;99.90;;;;;;5071853;28;20259;-67
2022/02/12 01:39:17;;;;;;;3.13;1.77;;;2.40;99.90;;;;;;5071447;28;20248;-67
2022/02/12 01:41:44;;;;;;;3.37;1.90;;;2.40;99.90;;;;;;5072002;28;20292;-68
2022/02/12 01:44:11;;;;;;;3.20;1.70;;;2.30;99.90;;;;;;5070882;28;20342;-68
2022/02/12 01:46:38;;;;;;;2.17;1.27;;;2.30;99.90;;;;;;5057259;28;20309;-67
2022/02/12 01:49:07;;;;;;;3.20;1.40;;;2.30;99.90;;;;;;5071860;28;20696;-68
2022/02/12 01:51:33;;;;;;;2.00;1.40;;;2.30;99.90;;;;;;5083186;28;20204;-66
2022/02/12 01:54:00;;;;;;;2.77;1.63;;;2.20;99.90;;;;;;5078684;28;20283;-67
2022/02/12 01:56:28;;;;;;;2.90;1.40;;;2.20;99.90;;;;;;5058063;28;20300;-67
2022/02/12 01:58:55;;;;;;;3.13;1.27;;;2.20;99.90;;;;;;5084795;28;20218;-66
2022/02/12 02:01:22;;;;;;;2.87;1.40;;;2.20;99.90;;;;;;5082919;28;20201;-67
2022/02/12 02:03:49;;;;;;;2.13;1.40;;;2.20;99.90;;;;;;5076517;28;20288;-67
2022/02/12 02:06:17;;;;;;;2.90;1.40;;;2.20;99.90;;;;;;5074477;28;20387;-67
2022/02/12 02:08:44;;;;;;;4.17;1.80;;;2.20;99.90;;;;;;5079560;28;20291;-68
2022/02/12 02:11:15;;;;;;;2.03;1.53;;;2.20;99.90;;;;;;5071266;28;20679;-67
2022/02/12 02:13:42;;;;;;;3.37;1.40;;;2.20;99.90;;;;;;5071255;28;20197;-66
2022/02/12 02:16:12;;;;;;;1.50;1.23;;;2.20;99.90;;;;;;5072662;28;20259;-68
2022/02/12 02:18:39;;;;;;;1.63;0.93;;;2.10;99.90;;;;;;5070744;28;20304;-67
2022/02/12 02:21:07;;;;;;;3.00;1.40;;;2.10;99.90;;;;;;5074561;28;20221;-67
2022/02/12 02:23:38;;;;;;;1.30;1.20;;;2.10;99.90;;;;;;5073168;28;20205;-68
2022/02/12 02:26:05;;;;;;;2.10;1.30;;;2.00;99.90;;;;;;5075395;28;20251;-67
2022/02/12 02:28:33;;;;;;;2.70;1.33;;;2.00;99.90;;;;;;5061888;28;20246;-68
2022/02/12 02:31:00;;;;;;;3.57;1.33;;;2.00;99.90;;;;;;5084724;28;20284;-67
2022/02/12 02:33:26;;;;;;;3.67;1.60;;;2.00;99.90;;;;;;5071561;28;20232;-66
2022/02/12 02:35:53;;;;;;;1.80;1.20;;;2.00;99.90;;;;;;5074407;28;20205;-68
2022/02/12 02:38:21;;;;;;;4.60;1.50;;;2.00;99.90;;;;;;5073333;28;20232;-67
2022/02/12 02:40:50;;;;;;;3.67;1.57;;;2.00;99.90;;;;;;5060904;28;20649;-68
2022/02/12 02:43:17;;;;;;;1.93;1.40;;;2.00;99.90;;;;;;5073800;28;20300;-68
2022/02/12 02:45:44;;;;;;;1.67;1.40;;;2.00;99.90;;;;;;5072533;28;20213;-68
2022/02/12 02:48:11;;;;;;;6.57;1.57;;;2.00;99.90;;;;;;5074272;28;20296;-68
2022/02/12 02:56:14;;;;;;;5.90;1.40;;;2.00;99.90;;;;;;5058407;28;20188;-68
2022/02/12 02:58:42;;;;;;;3.30;1.90;;;2.10;99.90;;;;;;5067874;28;20202;-68
2022/02/12 03:01:13;;;;;;;3.07;1.70;;;2.10;99.90;;;;;;5073930;28;20201;-68
2022/02/12 03:03:41;;;;;;;2.27;1.57;;;2.00;99.90;;;;;;5073385;28;20202;-68
2022/02/12 03:06:09;;;;;;;4.50;1.63;;;2.10;99.90;;;;;;5061323;28;20300;-68
2022/02/12 03:08:36;;;;;;;2.83;1.50;;;2.00;99.90;;;;;;5060740;28;20229;-68
2022/02/12 03:11:05;;;;;;;4.63;1.80;;;2.00;99.90;;;;;;5067016;28;20705;-67
2022/02/12 03:13:34;;;;;;;4.13;1.50;;;1.90;99.90;;;;;;5074361;28;20212;-69
2022/02/12 03:16:02;;;;;;;3.20;1.83;;;1.90;99.90;;;;;;5073137;28;20207;-68
2022/02/12 03:18:28;;;;;;;3.80;2.13;;;1.90;99.90;;;;;;5062294;28;20216;-68
2022/02/12 03:20:55;;;;;;;3.90;2.10;;;1.80;99.90;;;;;;5087333;28;20692;-68
2022/02/12 03:23:22;;;;;;;3.23;1.63;;;1.80;99.90;;;;;;5072821;28;20255;-68
2022/02/12 03:25:49;;;;;;;4.50;2.00;;;1.80;99.90;;;;;;5073893;28;20304;-67
2022/02/12 03:28:16;;;;;;;2.30;1.57;;;1.70;99.90;;;;;;5073299;28;20714;-68
2022/02/12 03:30:46;;;;;;;6.70;2.23;;;1.70;99.90;;;;;;5074196;28;20225;-67
2022/02/12 03:33:14;;;;;;;4.60;1.77;;;1.70;99.90;;;;;;5074155;28;20209;-67
2022/02/12 03:35:41;;;;;;;2.60;1.63;;;1.60;99.90;;;;;;5069415;28;20205;-67
2022/02/12 03:38:10;;;;;;;4.53;2.30;;;1.60;99.90;;;;;;5062196;28;20649;-67
2022/02/12 03:40:38;;;;;;;5.73;2.10;;;1.60;99.90;;;;;;5072327;28;20197;-67
2022/02/12 03:43:06;;;;;;;4.37;1.97;;;1.50;99.90;;;;;;5073574;28;20300;-67
2022/02/12 03:45:33;;;;;;;3.90;2.30;;;1.50;99.90;;;;;;5064866;28;20224;-67
2022/02/12 03:48:02;;;;;;;6.97;2.33;;;1.40;99.90;;;;;;5064750;28;20296;-67
2022/02/12 03:50:31;;;;;;;4.03;1.87;;;1.40;99.90;;;;;;5072579;28;20352;-67
2022/02/12 03:52:58;;;;;;;2.67;1.80;;;1.40;99.90;;;;;;5068253;28;20209;-68
2022/02/12 03:55:25;;;;;;;3.90;2.23;;;1.40;99.90;;;;;;5067684;28;20215;-69
2022/02/12 03:57:52;;;;;;;3.67;2.20;;;1.30;99.90;;;;;;5063036;28;20209;-67
2022/02/12 04:00:20;;;;;;;4.03;2.10;;;1.40;99.90;;;;;;5073225;28;20216;-68
2022/02/12 04:02:47;;;;;;;2.90;2.00;;;1.30;99.90;;;;;;5077643;28;20297;-68
2022/02/12 04:05:16;;;;;;;3.27;1.80;;;1.20;99.90;;;;;;5068368;28;20308;-67
2022/02/12 04:07:44;;;;;;;2.80;2.20;;;1.20;99.90;;;;;;5062902;28;20201;-67
2022/02/12 04:10:12;;;;;;;2.90;1.77;;;1.20;99.90;;;;;;5068532;28;20225;-67
2022/02/12 04:12:39;;;;;;;3.43;2.00;;;1.10;99.90;;;;;;5060879;28;20309;-67
2022/02/12 04:15:08;;;;;;;2.97;2.00;;;1.20;99.90;;;;;;5072185;28;20249;-67
2022/02/12 04:17:35;;;;;;;4.40;2.00;;;1.10;99.90;;;;;;5067899;28;20582;-68
2022/02/12 04:20:03;;;;;;;2.97;1.90;;;1.10;99.90;;;;;;5073506;28;20259;-67
2022/02/12 04:22:32;;;;;;;4.53;1.77;;;1.10;99.90;;;;;;5067890;28;20654;-68
2022/02/12 04:24:59;;;;;;;2.80;2.03;;;1.10;99.90;;;;;;5072389;28;20201;-68
2022/02/12 04:27:26;;;;;;;3.07;2.10;;;1.10;99.90;;;;;;5072480;28;20209;-67
2022/02/12 04:29:54;;;;;;;5.73;1.77;;;1.10;99.90;;;;;;5059183;28;20206;-67
2022/02/12 04:32:21;;;;;;;4.17;2.23;;;1.00;99.90;;;;;;5069038;28;20229;-67
2022/02/12 04:34:48;;;;;;;1.87;1.70;;;1.00;99.90;;;;;;5073084;28;20267;-67
2022/02/12 04:37:15;;;;;;;2.20;1.53;;;1.00;99.90;;;;;;5063466;28;20252;-67
2022/02/12 04:39:44;;;;;;;5.17;2.33;;;1.00;99.90;;;;;;5072861;28;20205;-67
2022/02/12 04:42:12;;;;;;;2.70;1.30;;;1.00;99.90;;;;;;5076015;28;20645;-67
2022/02/12 04:44:39;;;;;;;2.37;1.60;;;1.00;99.90;;;;;;5083112;28;20719;-66
2022/02/12 04:47:07;;;;;;;3.93;2.17;;;0.90;99.90;;;;;;5072832;28;20228;-68
2022/02/12 04:49:34;;;;;;;3.90;1.80;;;0.90;99.90;;;;;;5080304;28;20254;-67
2022/02/12 04:52:01;;;;;;;3.43;2.00;;;0.90;99.90;;;;;;5069493;28;20222;-68
2022/02/12 04:54:28;;;;;;;3.43;1.60;;;0.90;99.90;;;;;;5088737;28;20204;-67
2022/02/12 04:56:56;;;;;;;1.50;1.30;;;0.90;99.90;;;;;;5066619;28;20212;-67
2022/02/12 04:59:23;;;;;;;3.20;2.00;;;0.90;99.90;;;;;;5086677;28;20291;-67
2022/02/12 05:01:50;;;;;;;2.17;1.60;;;0.90;99.90;;;;;;5072059;28;20208;-67
2022/02/12 05:04:17;;;;;;;2.37;1.60;;;1.00;99.90;;;;;;5058414;28;20205;-69
2022/02/12 05:06:44;;;;;;;2.40;1.50;;;0.90;99.90;;;;;;5068263;28;20292;-67
2022/02/12 05:09:13;;;;;;;3.37;1.90;;;0.90;99.90;;;;;;5082330;28;20300;-67
2022/02/12 05:11:40;;;;;;;5.10;1.40;;;0.90;99.90;;;;;;5072068;28;20229;-68
2022/02/12 05:14:09;;;;;;;2.70;1.50;;;0.90;99.90;;;;;;5072579;28;20239;-70
2022/02/12 05:16:36;;;;;;;3.40;1.80;;;0.90;99.90;;;;;;5062650;28;20206;-68
2022/02/12 05:19:04;;;;;;;3.70;1.60;;;0.90;99.90;;;;;;5072239;28;20205;-68
2022/02/12 05:21:31;;;;;;;3.90;1.73;;;0.80;99.90;;;;;;5069516;28;20711;-68
2022/02/12 05:23:58;;;;;;;3.40;1.60;;;0.80;99.90;;;;;;5074906;28;20208;-68
2022/02/12 05:26:26;;;;;;;3.13;1.40;;;0.80;99.90;;;;;;5088988;28;20568;-67
2022/02/12 05:28:52;;;;;;;7.43;1.60;;;0.80;99.90;;;;;;5076042;28;20216;-68
2022/02/12 05:31:21;;;;;;;4.17;2.20;;;0.80;99.90;;;;;;5074995;28;20324;-67
2022/02/12 05:33:47;;;;;;;2.70;1.43;;;0.80;99.90;;;;;;5078767;28;20205;-67
2022/02/12 05:36:15;;;;;;;3.17;1.50;;;0.70;99.90;;;;;;5075626;28;20198;-67
2022/02/12 05:38:42;;;;;;;3.57;1.80;;;0.70;99.90;;;;;;5064671;28;20289;-68
2022/02/12 05:41:10;;;;;;;2.80;1.27;;;0.70;99.90;;;;;;5075708;28;20834;-68
2022/02/12 05:43:38;;;;;;;3.07;1.97;;;0.70;99.90;;;;;;5075563;28;20292;-68
2022/02/12 05:46:06;;;;;;;4.27;1.77;;;0.70;99.90;;;;;;5076044;28;20205;-67
2022/02/12 05:48:35;;;;;;;2.60;1.60;;;0.60;99.90;;;;;;5056257;28;20306;-67
2022/02/12 05:51:03;;;;;;;2.43;1.50;;;0.60;99.90;;;;;;5077285;28;20315;-68
2022/02/12 05:53:30;;;;;;;4.03;1.57;;;0.50;99.90;;;;;;5057029;28;20674;-69
2022/02/12 05:55:57;;;;;;;2.77;1.63;;;0.60;99.90;;;;;;5065141;28;20292;-68
2022/02/12 05:58:24;;;;;;;3.90;1.80;;;0.60;99.90;;;;;;5073561;28;20296;-68
2022/02/12 06:00:51;;;;;;;7.17;1.93;;;0.60;99.90;;;;;;5071456;28;20272;-67
2022/02/12 06:03:19;;;;;;;4.77;1.87;;;0.60;99.90;;;;;;5068936;28;20721;-69
2022/02/12 06:05:47;;;;;;;4.87;1.97;;;0.60;99.90;;;;;;5075273;28;20215;-68
2022/02/12 06:08:14;;;;;;;3.47;1.50;;;0.60;99.90;;;;;;5080298;28;20212;-68
2022/02/12 06:10:41;;;;;;;4.83;1.87;;;0.60;99.90;;;;;;5083545;28;20296;-67
2022/02/12 06:13:08;;;;;;;4.90;1.70;;;0.70;99.90;;;;;;5075079;28;20304;-67
2022/02/12 06:15:36;;;;;;;4.73;2.73;;;0.60;99.90;;;;;;5078587;28;20287;-68
2022/02/12 06:18:03;;;;;;;3.37;1.87;;;0.70;99.90;;;;;;5086098;28;20205;-68
2022/02/12 06:20:31;;;;;;;3.43;1.97;;;0.70;99.90;;;;;;5083169;28;20344;-68
2022/02/12 06:22:59;;;;;;;2.70;1.87;;;0.70;99.90;;;;;;5078202;28;20201;-68
2022/02/12 06:25:26;;;;;;;3.00;1.77;;;0.70;99.90;;;;;;5081442;28;20263;-68
2022/02/12 06:27:53;;;;;;;2.93;1.87;;;0.70;99.90;;;;;;5073808;28;20299;-67
2022/02/12 06:30:20;;;;;;;5.77;1.97;;;0.70;99.90;;;;;;5072893;28;20205;-68
2022/02/12 06:32:47;;;;;;;12.30;2.30;;;0.70;99.90;;;;;;5084173;28;20332;-68
2022/02/12 06:35:14;;;;;;;3.13;1.80;;;0.70;99.90;;;;;;5086371;28;20244;-67
2022/02/12 06:37:41;;;;;;;3.83;1.40;;;0.70;99.90;;;;;;5084850;28;20320;-68
2022/02/12 06:40:11;;;;;;;5.30;2.07;;;0.70;99.90;;;;;;5088327;28;20205;-70
2022/02/12 06:42:38;;;;;;;3.30;1.70;;;0.80;99.90;;;;;;5082042;28;20207;-71
2022/02/12 06:45:05;;;;;;;6.87;2.00;;;0.80;99.90;;;;;;5078378;28;20237;-69
2022/02/12 06:47:32;;;;;;;4.37;2.10;;;0.80;99.90;;;;;;5075486;28;20264;-71
2022/02/12 06:49:59;;;;;;;3.53;1.70;;;0.80;99.90;;;;;;5080301;28;20296;-70
2022/02/12 06:52:26;;;;;;;8.47;3.63;;;0.80;99.90;;;;;;5073901;28;20225;-71
2022/02/12 06:54:54;;;;;;;3.67;1.97;;;0.90;99.90;;;;;;5065263;28;20583;-73
2022/02/12 06:57:22;;;;;;;5.07;1.60;;;0.90;99.90;;;;;;5074323;28;20349;-70
2022/02/12 06:59:49;;;;;;;2.93;1.50;;;1.00;99.90;;;;;;5072033;28;20196;-70
2022/02/12 07:02:17;;;;;;;3.57;1.70;;;1.10;99.90;;;;;;5078464;28;20210;-70
2022/02/12 07:04:44;;;;;;;3.33;1.90;;;1.20;99.90;;;;;;5071447;28;20216;-70
2022/02/12 07:07:11;;;;;;;4.37;2.10;;;1.40;99.90;;;;;;5077797;28;20205;-71
2022/02/12 07:09:38;;;;;;;5.20;2.00;;;1.40;99.90;;;;;;5081011;28;20236;-70
2022/02/12 07:12:05;;;;;;;2.87;1.97;;;1.50;99.90;;;;;;5083666;28;20224;-71
2022/02/12 07:14:34;;;;;;;7.07;2.00;;;1.70;99.90;;;;;;5077624;28;20201;-69
2022/02/12 07:17:03;;;;;;;3.60;1.93;;;1.90;99.90;;;;;;5085618;28;20291;-69
2022/02/12 07:19:30;;;;;;;3.77;1.87;;;2.00;99.90;;;;;;5080466;28;20704;-70
2022/02/12 07:21:57;;;;;;;3.57;1.93;;;2.20;99.90;;;;;;5085717;28;20225;-69
2022/02/12 07:24:24;;;;;;;6.60;2.07;;;2.30;99.90;;;;;;5085138;28;20201;-69
2022/02/12 07:26:51;;;;;;;2.60;1.70;;;2.40;99.90;;;;;;5075620;28;20304;-71
2022/02/12 07:29:17;;;;;;;4.93;2.00;;;2.50;99.90;;;;;;5079136;28;20292;-69
2022/02/12 07:31:46;;;;;;;4.10;1.93;;;2.60;99.90;;;;;;5072946;28;20311;-70
2022/02/12 07:34:15;;;;;;;3.63;1.77;;;2.70;99.90;;;;;;5072227;28;20205;-71
2022/02/12 07:36:42;;;;;;;3.93;1.60;;;2.80;99.90;;;;;;5067984;28;20226;-70
2022/02/12 07:39:09;;;;;;;6.00;2.10;;;3.00;99.90;;;;;;5069655;28;20687;-70
2022/02/12 07:41:36;;;;;;;1.40;1.30;;;3.10;99.90;;;;;;5068107;28;20213;-73
2022/02/12 07:44:03;;;;;;;3.10;1.50;;;3.40;99.90;;;;;;5062885;28;20209;-70
2022/02/12 07:46:30;;;;;;;4.07;1.80;;;3.50;99.90;;;;;;5075405;28;20702;-73
2022/02/12 07:48:58;;;;;;;4.00;1.83;;;3.60;99.90;;;;;;5071711;28;20722;-72
2022/02/12 07:51:25;;;;;;;5.00;1.87;;;3.60;99.90;;;;;;5068272;28;20222;-72
2022/02/12 07:53:52;;;;;;;3.13;1.67;;;3.70;99.90;;;;;;5090840;28;20272;-73
2022/02/12 07:56:19;;;;;;;5.60;2.03;;;3.80;99.90;;;;;;5076145;28;20197;-71
2022/02/12 07:58:46;;;;;;;6.17;1.70;;;3.80;99.90;;;;;;5065330;28;20225;-71
2022/02/12 08:01:14;;;;;;;5.00;1.80;;;3.80;99.90;;;;;;5070806;28;20208;-70
2022/02/12 08:03:41;;;;;;;4.73;1.67;;;3.90;99.90;;;;;;5082629;28;20300;-69
2022/02/12 08:07:27;;;;;;;5.40;2.03;;;4.00;99.90;;;;;;5075435;28;20229;-69
2022/02/12 08:08:56;;;;;;;3.70;1.30;;;4.10;99.90;;;;;;5075501;28;20215;-72
2022/02/12 08:11:23;;;;;;;2.70;1.53;;;4.20;99.90;;;;;;5073786;28;20605;-66
2022/02/12 08:13:51;;;;;;;4.20;1.80;;;4.30;99.90;;;;;;5078679;28;20236;-69
2022/02/12 08:16:18;;;;;;;3.53;1.67;;;4.30;99.90;;;;;;5066912;28;20733;-71
2022/02/12 08:18:45;;;;;;;5.63;1.80;;;4.50;99.90;;;;;;5070806;28;20198;-72
2022/02/12 08:21:13;;;;;;;1.63;1.30;;;4.50;99.90;;;;;;5078199;28;20218;-74
2022/02/12 08:23:40;;;;;;;3.17;1.50;;;4.70;99.90;;;;;;5074885;28;20233;-73
2022/02/12 08:26:07;;;;;;;2.57;1.63;;;4.80;99.90;;;;;;5086948;28;20614;-74
2022/02/12 08:28:34;;;;;;;3.43;1.83;;;5.10;99.90;;;;;;5077003;28;20209;-73
2022/02/12 08:31:01;;;;;;;3.53;1.60;;;5.20;99.90;;;;;;5070310;28;21052;-75
2022/02/12 08:33:29;;;;;;;4.03;1.40;;;5.20;99.90;;;;;;5075585;28;20688;-72
2022/02/12 08:35:56;;;;;;;3.77;1.80;;;5.30;99.90;;;;;;5066066;28;20229;-72
2022/02/12 08:38:25;;;;;;;3.20;1.37;;;5.40;99.90;;;;;;5070291;28;20292;-72
2022/02/12 08:40:52;;;;;;;5.37;1.93;;;5.60;99.90;;;;;;5083930;28;20248;-72
2022/02/12 08:43:20;;;;;;;2.53;1.30;;;5.80;99.90;;;;;;5061904;28;20620;-73
2022/02/12 08:45:46;;;;;;;4.83;2.07;;;6.00;99.90;;;;;;5071491;28;20600;-72
2022/02/12 08:48:14;;;;;;;3.10;1.63;;;6.10;99.90;;;;;;5083079;28;20204;-74
2022/02/12 08:50:40;;;;;;;4.03;2.10;;;6.20;99.90;;;;;;5087811;28;20229;-73
2022/02/12 08:53:07;;;;;;;3.70;1.80;;;6.20;99.90;;;;;;5072608;28;20702;-72
2022/02/12 08:55:36;;;;;;;4.03;1.80;;;6.30;99.90;;;;;;5063936;28;20304;-75
2022/02/12 08:58:03;;;;;;;3.60;1.23;;;6.30;99.90;;;;;;5078053;28;20252;-73
2022/02/12 09:00:30;;;;;;;5.20;2.23;;;6.40;99.90;;;;;;5079718;28;20205;-73
2022/02/12 09:02:57;;;;;;;3.60;1.80;;;7.10;99.90;;;;;;5069175;28;20251;-75
2022/02/12 09:05:24;;;;;;;3.40;2.13;;;6.90;99.90;;;;;;5078811;28;20743;-74
2022/02/12 09:07:51;;;;;;;4.40;1.80;;;7.20;99.90;;;;;;5068987;28;20216;-72
2022/02/12 09:10:18;;;;;;;3.70;1.93;;;7.70;99.90;;;;;;5077058;28;20209;-72
2022/02/12 09:12:46;;;;;;;5.27;2.40;;;8.30;99.90;;;;;;5068515;28;20727;-75
2022/02/12 09:15:13;;;;;;;18.43;2.50;;;10.10;99.90;;;;;;5070898;28;20204;-74
2022/02/12 09:17:40;;;;;;;4.80;2.67;;;13.10;99.90;;;;;;5067552;28;20575;-74
2022/02/12 09:20:08;;;;;;;2.60;1.97;;;16.50;88.70;;;;;;5070498;28;20236;-75
2022/02/12 09:22:35;;;;;;;5.23;2.97;;;19.60;63.80;;;;;;5078786;28;20208;-75
2022/02/12 09:25:02;;;;;;;5.35;3.08;;;21.70;53.90;;;;;;5080551;28;20598;-74
2022/02/12 09:27:29;;;;;;;5.10;2.90;;;23.40;49.40;;;;;;5072933;28;20205;-73
2022/02/12 09:29:59;;;;;;;4.30;2.90;;;24.70;44.90;;;;;;5062570;28;20305;-74
2022/02/12 09:32:26;;;;;;;4.57;2.90;;;25.80;42.70;;;;;;5067566;28;20681;-76
2022/02/12 09:34:54;;;;;;;4.20;3.20;;;26.90;40.80;;;;;;5077833;28;20684;-76
2022/02/12 09:37:20;;;;;;;4.82;2.92;;;27.80;38.30;;;;;;5063349;28;20237;-74
2022/02/12 09:39:48;;;;;;;5.70;2.97;;;28.90;37.50;;;;;;5070036;28;20540;-75
2022/02/12 09:42:15;;;;;;;4.65;3.17;;;29.90;35.60;;;;;;5062788;28;20265;-74
2022/02/12 09:44:42;;;;;;;4.38;3.28;;;30.90;34.60;;;;;;5070649;28;20202;-74
2022/02/12 09:47:35;;;;;;;3.95;2.80;;;31.70;32.80;;;;;;5063172;28;20213;-75
2022/02/12 09:50:05;;;;;;;4.45;2.88;;;32.20;31.40;;;;;;5071995;28;20205;-75
2022/02/12 09:52:33;;;;;;;6.45;3.60;;;32.70;30.60;;;;;;5082458;28;20271;-74
2022/02/12 09:55:01;;;;;;;6.18;4.43;;;33.50;30.20;;;;;;5072215;28;20225;-75
2022/02/12 09:57:28;;;;;;;5.05;3.78;;;34.00;29.60;;;;;;5064125;28;20237;-73
2022/02/12 09:59:58;;;;;;;4.57;3.50;;;34.60;29.40;;;;;;5069121;28;20630;-74
2022/02/12 10:02:26;;;;;;;6.07;3.85;;;35.10;28.60;;;;;;5070470;28;20263;-73
2022/02/12 10:05:23;;;;;;;5.60;4.22;;;35.00;28.00;;;;;;5075731;28;20209;-73
2022/02/12 10:07:51;;;;;;;5.18;4.15;;;34.90;27.20;;;;;;5070071;28;20205;-73
2022/02/12 10:10:20;;;;;;;6.43;3.97;;;34.90;27.30;;;;;;5068328;28;20221;-73
2022/02/12 10:12:47;;;;;;;4.93;4.00;;;35.10;27.00;;;;;;5067395;28;20229;-72
2022/02/12 10:15:25;;;;;;;5.05;3.85;;;34.80;26.80;;;;;;5074666;28;20257;-73
2022/02/12 10:17:55;;;;;;;4.30;3.88;;;34.70;26.80;;;;;;5082397;28;20207;-72
2022/02/12 10:20:28;;;;;;;6.88;5.07;;;35.20;26.90;;;;;;5090008;28;20680;-73
2022/02/12 10:23:03;;;;;;;5.18;3.97;;;35.70;26.20;;;;;;5083071;28;20193;-72
2022/02/12 10:25:30;;;;;;;4.47;3.45;;;35.50;25.40;;;;;;5080237;28;20609;-73
2022/02/12 10:27:57;;;;;;;4.95;3.70;;;35.30;25.80;;;;;;5076923;28;20215;-73
2022/02/12 10:30:26;;;;;;;4.82;3.80;;;35.60;25.80;;;;;;5081043;28;20233;-72
2022/02/12 10:32:57;;;;;;;4.20;3.30;;;35.70;25.50;;;;;;5072487;28;20252;-73
2022/02/12 10:35:24;;;;;;;4.45;3.40;;;36.00;25.60;;;;;;5080467;28;20642;-73
2022/02/12 10:37:52;;;;;;;3.85;3.35;;;36.30;25.30;;;;;;5078971;28;20340;-73
2022/02/12 10:40:20;;;;;;;4.60;3.42;;;36.80;25.00;;;;;;5083758;28;20296;-73
2022/02/12 10:42:47;;;;;;;5.15;3.70;;;37.50;24.70;;;;;;5073701;28;20246;-73
2022/02/12 10:45:18;;;;;;;5.53;3.45;;;38.00;24.30;;;;;;5076671;28;20288;-74
2022/02/12 10:47:46;;;;;;;6.97;5.18;;;38.40;24.10;;;;;;5075683;28;20227;-73
2022/02/12 10:50:15;;;;;;;3.72;3.33;;;38.60;23.90;;;;;;5074573;28;20201;-73
2022/02/12 10:52:43;;;;;;;5.78;3.22;;;39.00;23.60;;;;;;5075071;28;20247;-74
2022/02/12 10:55:32;;;;;;;3.55;3.10;;;39.20;23.20;;;;;;5068999;28;20267;-71
2022/02/12 10:58:02;;;;;;;5.85;4.47;;;39.10;22.80;;;;;;5072297;28;20267;-74
2022/02/12 11:00:30;;;;;;;4.50;3.42;;;38.70;23.70;;;;;;5076206;28;20236;-74
2022/02/12 11:02:59;;;;;;;4.25;2.80;;;38.90;23.20;;;;;;5076427;28;20255;-73
2022/02/12 11:05:28;;;;;;;3.67;3.05;;;39.30;22.70;;;;;;5075641;28;20566;-73
2022/02/12 11:07:56;;;;;;;5.50;3.30;;;39.50;22.40;;;;;;5067458;28;20263;-73
2022/02/12 11:10:23;;;;;;;4.32;3.05;;;40.20;22.40;;;;;;5075519;28;20283;-74
2022/02/12 11:12:50;;;;;;;3.88;3.13;;;41.00;22.00;;;;;;5078010;28;20316;-72
2022/02/12 11:15:18;;;;;;;4.00;3.35;;;41.50;21.60;;;;;;5067870;28;20483;-74
2022/02/12 11:17:47;;;;;;;4.28;3.45;;;42.10;21.40;;;;;;5074766;28;20232;-75
2022/02/12 11:20:15;;;;;;;3.58;3.13;;;42.40;21.30;;;;;;5073448;28;20221;-74
2022/02/12 11:22:43;;;;;;;5.25;3.83;;;42.40;21.00;;;;;;5069647;28;20288;-71
2022/02/12 11:25:33;;;;;;;4.20;3.53;;;42.40;20.90;;;;;;5065302;28;20232;-70
2022/02/12 11:28:06;;;;;;;4.85;3.47;;;42.00;20.80;;;;;;5076453;28;20209;-70
2022/02/12 11:30:33;;;;;;;5.28;4.25;;;41.30;21.10;;;;;;5078464;28;20261;-68
2022/02/12 11:33:07;;;;;;;4.13;3.72;;;41.30;20.90;;;;;;5082672;28;20278;-70
2022/02/12 11:35:34;;;;;;;3.80;3.00;;;41.50;20.90;;;;;;5089148;28;20584;-70
2022/02/12 11:38:03;;;;;;;3.75;3.35;;;41.90;21.10;;;;;;5087584;28;20328;-69
2022/02/12 11:40:30;;;;;;;4.20;3.35;;;41.80;20.20;;;;;;5076207;28;20296;-68
2022/02/12 11:42:59;;;;;;;4.93;3.70;;;41.70;20.20;;;;;;5070020;28;20221;-70
2022/02/12 11:45:30;;;;;;;5.05;3.58;;;41.60;20.10;;;;;;5075295;28;20216;-70
2022/02/12 11:48:18;;;;;;;3.67;3.30;;;41.30;20.50;;;;;;5074891;28;20205;-69
2022/02/12 11:50:50;;;;;;;4.72;3.17;;;41.70;20.50;;;;;;5079080;28;20215;-70
2022/02/12 11:53:44;;;;;;;4.35;3.22;;;42.30;20.20;;;;;;5077533;28;20324;-70
2022/02/12 11:56:49;;;;;;;6.22;3.13;;;42.10;19.50;;;;;;5069159;28;20220;-72
2022/02/12 11:59:21;;;;;;;6.32;3.38;;;42.10;19.70;;;;;;5079464;28;20209;-69
2022/02/12 12:01:53;;;;;;;4.13;3.03;;;42.40;19.70;;;;;;5077996;28;20197;-67
2022/02/12 12:04:22;;;;;;;3.97;2.80;;;42.80;19.50;;;;;;5075100;28;20566;-71
2022/02/12 12:07:13;;;;;;;3.35;2.38;;;42.70;19.20;;;;;;5083039;28;20547;-69
2022/02/12 12:10:09;;;;;;;3.47;2.45;;;42.00;18.80;;;;;;5083750;28;20208;-68
2022/02/12 12:12:36;;;;;;;3.80;2.80;;;40.80;18.50;;;;;;5069386;28;20236;-68
2022/02/12 12:15:18;;;;;;;3.22;2.40;;;37.70;18.50;;;;;;5069215;28;20215;-68
2022/02/12 12:17:45;;;;;;;4.40;2.72;;;33.80;19.90;;;;;;5076764;28;20244;-68
2022/02/12 12:20:12;;;;;;;4.20;2.72;;;30.30;21.40;;;;;;5075206;28;20263;-67
2022/02/12 12:22:39;;;;;;;4.15;2.60;;;27.40;22.70;;;;;;5070738;28;20201;-66
2022/02/12 12:25:08;;;;;;;4.78;2.55;;;24.80;24.50;;;;;;5074099;28;20205;-69
2022/02/12 12:27:35;;;;;;;5.38;3.45;;;22.40;25.90;;;;;;5073198;28;20267;-69
2022/02/12 12:32:59;;;;;;;3.55;2.55;;;18.60;29.00;;;;;;5081945;28;20619;-69
2022/02/12 12:35:26;;;;;;;4.80;2.73;;;17.00;30.30;;;;;;5087010;28;20904;-69
2022/02/12 12:37:55;;;;;;;2.90;2.30;;;15.80;32.00;;;;;;5079129;28;20357;-70
2022/02/12 12:40:31;;;;;;;3.90;2.20;;;14.60;33.50;;;;;;5081740;28;20200;-69
2022/02/12 12:42:59;;;;;;;6.00;2.33;;;13.60;35.40;;;;;;5073941;28;20239;-65
2022/02/12 12:45:26;;;;;;;3.13;2.13;;;12.70;36.80;;;;;;5087236;28;20205;-70
2022/02/12 12:47:56;;;;;;;4.90;2.10;;;12.00;38.20;;;;;;5079338;28;20680;-70
2022/02/12 12:50:24;;;;;;;5.80;2.30;;;11.30;39.20;;;;;;5082184;28;20271;-68
2022/02/12 12:53:01;;;;;;;3.97;2.20;;;10.80;40.20;;;;;;5075011;28;20775;-69
2022/02/12 12:55:30;;;;;;;5.10;2.00;;;10.50;41.10;;;;;;5073528;28;20209;-65
2022/02/12 12:57:57;;;;;;;3.87;1.97;;;10.10;41.70;;;;;;5073079;28;20305;-66
2022/02/12 13:00:26;;;;;;;4.13;2.23;;;9.80;43.00;;;;;;5081548;28;20205;-66
2022/02/12 13:02:55;;;;;;;2.23;1.87;;;9.40;43.80;;;;;;5083053;28;20217;-65
2022/02/12 13:05:23;;;;;;;3.30;2.10;;;9.10;44.60;;;;;;5071351;28;20271;-70
2022/02/12 13:07:51;;;;;;;3.20;1.80;;;8.80;45.00;;;;;;5082239;28;20267;-71
2022/02/12 13:10:23;;;;;;;3.33;1.93;;;8.50;45.40;;;;;;5073836;28;20669;-70